Flight Track Log - Related Links

Times and Time Zones

All times are in EDT time to prevent confusion due to time zone crossing. See the PDT4173 flight status page for this flight to view local times or setup timezone preferences in your user account.


Time Position Orientation Groundspeed Altitude Reporting Facility
EDT Latitude Longitude Course Direction KTS MPH feet Rate Location/Type
Wed 06:15:00 PM 40.1337 -75.4744 325° Northwest  Level FlightAware Approximate
Wed 06:16:00 PM 40.2180 -75.5612 279° West  Level FlightAware Approximate
Wed 06:17:00 PM 40.2348 -75.7032 279° West  Level FlightAware Approximate
Wed 06:18:00 PM 40.2500 -75.8454 270° West  Level FlightAware Approximate
Wed 06:19:00 PM 40.2532 -75.9888 281° West  Level FlightAware Approximate
Wed 06:20:00 PM 40.2685 -76.1308 273° West  Level FlightAware Approximate
Wed 06:21:00 PM 40.2739 -76.2744 273° West  Level FlightAware Approximate
Wed 06:22:00 PM 40.2791 -76.4181 273° West  Level FlightAware Approximate
Wed 06:23:00 PM 40.2842 -76.5617 273° West  Level FlightAware Approximate
Wed 06:24:00 PM 40.2890 -76.7054 273° West  Level FlightAware Approximate
Wed 06:25:00 PM 40.2937 -76.8491 272° West  Level FlightAware Approximate
Wed 06:26:00 PM 40.2982 -76.9928 272° West  Level FlightAware Approximate
Wed 06:27:00 PM 40.2742 -77.0058 114° Southeast  Level FlightAware Approximate
Wed 06:28:00 PM 40.2308 -76.8758 114° Southeast  Level FlightAware Approximate
Wed 06:29:00 PM 40.1932 -76.7626 118° Southeast  Level Estimated
Wed 06:30:00 PM 40.1932 -76.7626 118° Southeast  Level Estimated
Wed 06:31:00 PM 40.1932 -76.7626 118° Southeast  Level Estimated
Wed 06:32:00 PM 40.1932 -76.7626 118° Southeast  Level Estimated
Wed 06:33:00 PM 40.1932 -76.7626 118° Southeast  Level Estimated
Wed 06:34:00 PM 40.1932 -76.7626 118° Southeast  Level Estimated
Wed 06:35:00 PM 40.1932 -76.7626 118° Southeast  Level Estimated
Wed 06:36:00 PM 40.1932 -76.7626 118° Southeast  Level Estimated
Wed 06:37:00 PM 40.1932 -76.7626 118° Southeast  Level Estimated
Wed 06:38:00 PM 40.1932 -76.7626 118° Southeast  Level Estimated
Wed 06:39:00 PM 40.1932 -76.7626 118° Southeast  Level Estimated
Wed 06:40:00 PM 40.1932 -76.7626 118° Southeast  Level Estimated
Wed 06:41:00 PM 40.1932 -76.7626 118° Southeast  Level Estimated
Wed 06:42:00 PM 40.1932 -76.7626 118° Southeast  Level Estimated
Wed 06:43:00 PM 40.1932 -76.7626 118° Southeast  Level Estimated
Wed 06:44:00 PM 40.1932 -76.7626 118° Southeast  Level Estimated
Wed 06:45:00 PM 40.1932 -76.7626 118° Southeast  Level Estimated

Login

Don't have an account? Register now (free) for customized features, flight alerts, and more!